Time;durP1;ratioP1;P1;durP2;ratioP2;P2;SDS_P1;SDS_P2;PMS_P1;PMS_P2;Temp;Humidity;BMP_temperature;BMP_pressure;BME280_temperature;BME280_humidity;BME280_pressure;Samples;Min_cycle;Max_cycle;Signal;HPM_P1;HPM_P2
2022/02/28 00:00:43;;;;;;;20.38;8.93;;;;;;;;;;4839670;29;20441;-76
2022/02/28 00:03:09;;;;;;;21.42;8.88;;;;;;;;;;4845682;29;20047;-75
2022/02/28 00:05:35;;;;;;;21.15;8.68;;;;;;;;;;4858199;29;20154;-75
2022/02/28 00:08:01;;;;;;;24.67;9.35;;;;;;;;;;4857819;29;20044;-75
2022/02/28 00:10:27;;;;;;;18.33;7.80;;;;;;;;;;4857983;29;20033;-76
2022/02/28 00:12:53;;;;;;;21.23;8.45;;;;;;;;;;4857638;29;20044;-75
2022/02/28 00:15:20;;;;;;;16.98;7.38;;;;;;;;;;4857900;29;20396;-75
2022/02/28 00:17:47;;;;;;;20.77;8.25;;;;;;;;;;4858221;29;20048;-76
2022/02/28 00:20:14;;;;;;;20.45;8.90;;;;;;;;;;4857260;29;20083;-75
2022/02/28 00:22:40;;;;;;;17.92;8.00;;;;;;;;;;4857821;29;20045;-75
2022/02/28 00:25:07;;;;;;;19.95;8.32;;;;;;;;;;4856938;29;20029;-75
2022/02/28 00:27:33;;;;;;;18.63;8.68;;;;;;;;;;4858093;29;20048;-75
2022/02/28 00:29:59;;;;;;;22.90;9.55;;;;;;;;;;4855589;29;20037;-75
2022/02/28 00:32:25;;;;;;;21.92;9.73;;;;;;;;;;4857527;29;20093;-75
2022/02/28 00:34:51;;;;;;;23.13;10.05;;;;;;;;;;4853145;29;20042;-75
2022/02/28 00:37:18;;;;;;;32.22;14.68;;;;;;;;;;4853921;29;20045;-75
2022/02/28 00:39:44;;;;;;;32.50;14.57;;;;;;;;;;4857356;29;20072;-76
2022/02/28 00:42:10;;;;;;;36.28;15.30;;;;;;;;;;4856872;29;20037;-75
2022/02/28 00:44:36;;;;;;;22.15;11.90;;;;;;;;;;4857568;29;20560;-76
2022/02/28 00:47:03;;;;;;;24.83;11.65;;;;;;;;;;4856101;29;20417;-75
2022/02/28 00:49:29;;;;;;;27.95;11.98;;;;;;;;;;4857023;29;20369;-75
2022/02/28 00:51:55;;;;;;;27.65;13.25;;;;;;;;;;4845433;29;20197;-75
2022/02/28 00:54:21;;;;;;;32.17;14.02;;;;;;;;;;4857051;29;20535;-75
2022/02/28 00:56:47;;;;;;;31.98;14.27;;;;;;;;;;4852611;29;20380;-75
2022/02/28 00:59:13;;;;;;;29.25;14.20;;;;;;;;;;4851430;29;20057;-75
2022/02/28 01:01:39;;;;;;;34.78;15.23;;;;;;;;;;4854641;29;20042;-76
2022/02/28 01:04:06;;;;;;;32.30;14.45;;;;;;;;;;4848380;29;20041;-75
2022/02/28 01:06:32;;;;;;;32.03;14.85;;;;;;;;;;4856653;29;20030;-75
2022/02/28 01:08:58;;;;;;;29.85;14.45;;;;;;;;;;4856454;29;20060;-76
2022/02/28 01:11:24;;;;;;;22.83;13.07;;;;;;;;;;4856466;29;20151;-75
2022/02/28 01:13:50;;;;;;;24.88;12.15;;;;;;;;;;4856957;29;20965;-76
2022/02/28 01:16:16;;;;;;;23.50;11.88;;;;;;;;;;4855950;29;20521;-75
2022/02/28 01:18:42;;;;;;;24.48;11.73;;;;;;;;;;4856768;29;20025;-76
2022/02/28 01:21:09;;;;;;;24.55;10.95;;;;;;;;;;4856914;29;20746;-75
2022/02/28 01:23:35;;;;;;;22.33;11.70;;;;;;;;;;4857117;29;20041;-77
2022/02/28 01:26:01;;;;;;;26.52;13.85;;;;;;;;;;4855074;29;20033;-76
2022/02/28 01:28:27;;;;;;;36.72;18.25;;;;;;;;;;4856945;29;20033;-75
2022/02/28 01:30:53;;;;;;;36.00;17.67;;;;;;;;;;4856679;29;20038;-75
2022/02/28 01:33:19;;;;;;;34.38;16.30;;;;;;;;;;4856904;29;20044;-76
2022/02/28 01:35:45;;;;;;;28.15;15.85;;;;;;;;;;4857108;29;20030;-75
2022/02/28 01:38:11;;;;;;;29.30;13.50;;;;;;;;;;4856715;29;20136;-76
2022/02/28 01:40:37;;;;;;;23.02;11.50;;;;;;;;;;4856598;29;20113;-76
2022/02/28 01:43:04;;;;;;;21.38;10.52;;;;;;;;;;4856754;29;20037;-76
2022/02/28 01:45:31;;;;;;;21.75;10.55;;;;;;;;;;4856175;29;20149;-76
2022/02/28 01:47:58;;;;;;;21.73;10.95;;;;;;;;;;4850094;29;20041;-75
2022/02/28 01:50:24;;;;;;;24.48;11.10;;;;;;;;;;4855973;29;20033;-76
2022/02/28 01:52:51;;;;;;;18.73;9.88;;;;;;;;;;4847913;29;20054;-76
2022/02/28 01:55:17;;;;;;;20.40;9.52;;;;;;;;;;4856327;29;20593;-76
2022/02/28 01:57:44;;;;;;;19.98;8.85;;;;;;;;;;4856870;29;20072;-75
2022/02/28 02:00:11;;;;;;;16.52;8.60;;;;;;;;;;4856000;29;20117;-76
2022/02/28 02:02:37;;;;;;;16.13;8.25;;;;;;;;;;4856820;29;20042;-76
2022/02/28 02:05:03;;;;;;;17.30;9.25;;;;;;;;;;4856104;29;20038;-76
2022/02/28 02:07:30;;;;;;;17.45;9.88;;;;;;;;;;4856823;29;20126;-76
2022/02/28 02:09:58;;;;;;;20.65;11.30;;;;;;;;;;4840306;29;20030;-76
2022/02/28 02:12:25;;;;;;;25.77;12.30;;;;;;;;;;4856827;29;20148;-75
2022/02/28 02:14:51;;;;;;;25.30;10.75;;;;;;;;;;4850131;29;20058;-76
2022/02/28 02:17:17;;;;;;;25.50;11.85;;;;;;;;;;4856432;29;20041;-76
2022/02/28 02:19:45;;;;;;;19.42;10.55;;;;;;;;;;4845097;29;20037;-75
2022/02/28 02:22:14;;;;;;;25.73;13.38;;;;;;;;;;4852604;29;20407;-76
2022/02/28 02:24:40;;;;;;;25.05;11.98;;;;;;;;;;4860160;29;20122;-76
2022/02/28 02:27:07;;;;;;;17.88;10.48;;;;;;;;;;4860141;29;20047;-75
2022/02/28 02:29:36;;;;;;;26.58;11.52;;;;;;;;;;4859376;29;20044;-76
2022/02/28 02:32:08;;;;;;;21.90;10.02;;;;;;;;;;4860299;29;20099;-76
2022/02/28 02:34:35;;;;;;;20.98;10.82;;;;;;;;;;4851977;29;20222;-75
2022/02/28 02:37:00;;;;;;;26.20;11.60;;;;;;;;;;4859679;29;20081;-76
2022/02/28 02:39:26;;;;;;;26.02;12.93;;;;;;;;;;4845256;29;20113;-76
2022/02/28 02:41:53;;;;;;;20.88;10.82;;;;;;;;;;4854051;29;20037;-75
2022/02/28 02:44:19;;;;;;;23.13;10.88;;;;;;;;;;4854229;29;20040;-76
2022/02/28 02:46:50;;;;;;;22.98;10.30;;;;;;;;;;4857317;29;20048;-76
2022/02/28 02:49:16;;;;;;;28.13;12.02;;;;;;;;;;4859101;29;20494;-76
2022/02/28 02:51:43;;;;;;;21.70;10.77;;;;;;;;;;4856346;29;20056;-76
2022/02/28 02:54:09;;;;;;;23.30;10.45;;;;;;;;;;4859570;29;20162;-75
2022/02/28 02:56:36;;;;;;;21.27;10.98;;;;;;;;;;4858297;29;20616;-76
2022/02/28 02:59:02;;;;;;;20.35;9.43;;;;;;;;;;4852501;29;20141;-76
2022/02/28 03:01:29;;;;;;;19.38;10.23;;;;;;;;;;4847613;29;20038;-76
2022/02/28 03:03:55;;;;;;;20.58;9.32;;;;;;;;;;4858958;29;20474;-76
2022/02/28 03:06:21;;;;;;;16.98;7.28;;;;;;;;;;4859206;29;20050;-76
2022/02/28 03:08:47;;;;;;;17.17;8.20;;;;;;;;;;4858907;29;20053;-76
2022/02/28 03:11:13;;;;;;;15.85;6.97;;;;;;;;;;4858496;29;20038;-75
2022/02/28 03:13:39;;;;;;;18.02;6.70;;;;;;;;;;4859040;29;20029;-75
2022/02/28 03:16:05;;;;;;;15.35;5.60;;;;;;;;;;4842091;29;20053;-75
2022/02/28 03:18:31;;;;;;;12.93;6.00;;;;;;;;;;4840465;29;20034;-76
2022/02/28 03:20:57;;;;;;;11.18;5.38;;;;;;;;;;4854503;29;20083;-75
2022/02/28 03:23:23;;;;;;;12.05;5.05;;;;;;;;;;4840496;29;20034;-76
2022/02/28 03:25:49;;;;;;;11.93;4.80;;;;;;;;;;4858118;29;20037;-75
2022/02/28 03:28:15;;;;;;;10.85;5.10;;;;;;;;;;4840599;29;20414;-76
2022/02/28 03:30:41;;;;;;;15.70;5.78;;;;;;;;;;4848792;29;20057;-76
2022/02/28 03:33:07;;;;;;;15.55;5.75;;;;;;;;;;4858370;29;20083;-76
2022/02/28 03:35:33;;;;;;;19.65;7.30;;;;;;;;;;4858686;29;20070;-76
2022/02/28 03:38:00;;;;;;;13.30;6.30;;;;;;;;;;4850095;29;20049;-76
2022/02/28 03:40:25;;;;;;;16.02;6.35;;;;;;;;;;4847304;29;20144;-76
2022/02/28 03:42:55;;;;;;;19.77;7.43;;;;;;;;;;4858636;29;20455;-76
2022/02/28 03:45:21;;;;;;;12.52;5.45;;;;;;;;;;4857647;29;20037;-75
2022/02/28 03:47:47;;;;;;;16.30;6.45;;;;;;;;;;4858576;29;20073;-75
2022/02/28 03:50:13;;;;;;;14.60;6.80;;;;;;;;;;4857637;29;20033;-76
2022/02/28 03:52:39;;;;;;;12.75;7.28;;;;;;;;;;4858784;29;20484;-76
2022/02/28 03:55:05;;;;;;;15.90;6.88;;;;;;;;;;4857941;29;20041;-76
2022/02/28 03:57:31;;;;;;;13.48;6.18;;;;;;;;;;4858324;29;20053;-75
2022/02/28 03:59:57;;;;;;;18.13;7.65;;;;;;;;;;4854394;29;20034;-76
2022/02/28 04:02:23;;;;;;;18.77;7.93;;;;;;;;;;4849669;29;20087;-75
2022/02/28 04:04:49;;;;;;;20.17;8.43;;;;;;;;;;4857233;29;20087;-75
2022/02/28 04:07:15;;;;;;;17.92;7.43;;;;;;;;;;4858103;29;20041;-76
2022/02/28 04:09:41;;;;;;;15.10;7.00;;;;;;;;;;4857802;29;20120;-76
2022/02/28 04:12:08;;;;;;;16.35;7.80;;;;;;;;;;4857937;29;20066;-76
2022/02/28 04:14:35;;;;;;;13.23;6.68;;;;;;;;;;4858070;29;20045;-76
2022/02/28 04:17:01;;;;;;;15.65;6.47;;;;;;;;;;4857209;29;20045;-75
2022/02/28 04:19:27;;;;;;;14.90;7.45;;;;;;;;;;4857683;29;20073;-75
2022/02/28 04:21:53;;;;;;;16.13;5.90;;;;;;;;;;4857238;29;20033;-75
2022/02/28 04:24:19;;;;;;;14.43;6.70;;;;;;;;;;4857819;29;20037;-75
2022/02/28 04:26:46;;;;;;;14.70;6.15;;;;;;;;;;4857260;29;20067;-75
2022/02/28 04:29:15;;;;;;;11.07;5.38;;;;;;;;;;4858002;29;20475;-75
2022/02/28 04:31:41;;;;;;;10.10;4.85;;;;;;;;;;4856998;29;20072;-75
2022/02/28 04:34:07;;;;;;;11.65;5.05;;;;;;;;;;4857215;29;20041;-75
2022/02/28 04:36:34;;;;;;;14.38;6.38;;;;;;;;;;4856859;29;20048;-75
2022/02/28 04:39:00;;;;;;;15.90;7.00;;;;;;;;;;4857879;29;20104;-75
2022/02/28 04:41:26;;;;;;;29.10;12.52;;;;;;;;;;4853959;29;20096;-75
2022/02/28 04:43:52;;;;;;;23.00;10.85;;;;;;;;;;4839309;29;20041;-75
2022/02/28 04:46:19;;;;;;;16.27;7.72;;;;;;;;;;4851407;29;20900;-75
2022/02/28 04:48:45;;;;;;;17.88;6.60;;;;;;;;;;4843235;29;20086;-75
2022/02/28 04:51:11;;;;;;;15.55;6.97;;;;;;;;;;4857320;29;20045;-75
2022/02/28 04:53:37;;;;;;;13.93;6.80;;;;;;;;;;4856463;29;20132;-75
2022/02/28 04:56:03;;;;;;;16.15;6.55;;;;;;;;;;4856006;29;20045;-75
2022/02/28 04:58:29;;;;;;;12.95;6.90;;;;;;;;;;4856876;29;20076;-75
2022/02/28 05:00:55;;;;;;;14.18;5.82;;;;;;;;;;4852590;29;20034;-75
2022/02/28 05:03:21;;;;;;;16.55;6.53;;;;;;;;;;4853876;29;20085;-75
2022/02/28 05:05:49;;;;;;;11.63;5.85;;;;;;;;;;4856413;29;20556;-75
2022/02/28 05:08:15;;;;;;;18.40;7.43;;;;;;;;;;4856751;29;20472;-75
2022/02/28 05:10:41;;;;;;;19.60;7.82;;;;;;;;;;4856289;29;20044;-75
2022/02/28 05:13:07;;;;;;;16.73;7.03;;;;;;;;;;4857444;29;20125;-75
2022/02/28 05:15:33;;;;;;;17.23;7.93;;;;;;;;;;4852311;29;20049;-75
2022/02/28 05:17:59;;;;;;;16.45;8.02;;;;;;;;;;4857817;29;20045;-75
2022/02/28 05:20:25;;;;;;;14.95;8.68;;;;;;;;;;4856458;29;20048;-75
2022/02/28 05:22:51;;;;;;;22.55;8.30;;;;;;;;;;4857093;29;20117;-75
2022/02/28 05:25:17;;;;;;;15.70;7.88;;;;;;;;;;4856643;29;20029;-76
2022/02/28 05:27:45;;;;;;;18.92;8.63;;;;;;;;;;4857723;29;20087;-76
2022/02/28 05:30:12;;;;;;;15.05;8.23;;;;;;;;;;4857076;29;20706;-75
2022/02/28 05:32:40;;;;;;;15.90;7.53;;;;;;;;;;4855461;29;20038;-75
2022/02/28 05:35:06;;;;;;;16.17;7.22;;;;;;;;;;4856139;29;20029;-75
2022/02/28 05:37:32;;;;;;;18.42;8.10;;;;;;;;;;4856953;29;20052;-75
2022/02/28 05:39:58;;;;;;;14.60;7.88;;;;;;;;;;4856156;29;20029;-75
2022/02/28 05:42:24;;;;;;;20.63;8.73;;;;;;;;;;4856961;29;20399;-75
2022/02/28 05:44:50;;;;;;;19.20;8.60;;;;;;;;;;4856067;29;20021;-75
2022/02/28 05:47:16;;;;;;;24.08;9.25;;;;;;;;;;4856891;29;20037;-75
2022/02/28 05:49:42;;;;;;;16.50;6.85;;;;;;;;;;4856648;29;20048;-76
2022/02/28 05:52:08;;;;;;;18.33;7.10;;;;;;;;;;4856834;29;20057;-75
2022/02/28 05:54:36;;;;;;;19.48;8.32;;;;;;;;;;4856627;29;20490;-75
2022/02/28 05:57:03;;;;;;;18.90;7.80;;;;;;;;;;4858312;29;20408;-76
2022/02/28 05:59:29;;;;;;;19.17;8.13;;;;;;;;;;4859987;29;20568;-75
2022/02/28 06:01:55;;;;;;;14.13;7.25;;;;;;;;;;4859440;29;20041;-75
2022/02/28 06:04:21;;;;;;;16.42;7.90;;;;;;;;;;4860109;29;20092;-75
2022/02/28 06:06:47;;;;;;;18.63;7.45;;;;;;;;;;4858076;29;20479;-75
2022/02/28 06:09:13;;;;;;;19.20;8.48;;;;;;;;;;4857734;29;20068;-76
2022/02/28 06:11:39;;;;;;;16.88;7.75;;;;;;;;;;4850994;29;20042;-75
2022/02/28 06:14:05;;;;;;;20.15;8.77;;;;;;;;;;4855566;29;20086;-75
2022/02/28 06:16:31;;;;;;;25.02;9.45;;;;;;;;;;4853888;29;20045;-75
2022/02/28 06:18:57;;;;;;;20.88;8.02;;;;;;;;;;4868668;29;20105;-75
2022/02/28 06:21:23;;;;;;;25.13;9.93;;;;;;;;;;4861826;29;20718;-75
2022/02/28 06:23:49;;;;;;;16.85;8.18;;;;;;;;;;4859711;29;20068;-75
2022/02/28 06:26:15;;;;;;;19.33;9.45;;;;;;;;;;4849768;29;20113;-75
2022/02/28 06:28:41;;;;;;;26.20;9.77;;;;;;;;;;4858360;29;20034;-75
2022/02/28 06:31:07;;;;;;;20.92;9.30;;;;;;;;;;4858730;29;20048;-75
2022/02/28 06:33:33;;;;;;;22.65;9.95;;;;;;;;;;4855440;29;20064;-75
2022/02/28 06:36:00;;;;;;;22.63;9.68;;;;;;;;;;4858315;29;20063;-75
2022/02/28 06:38:26;;;;;;;26.35;11.05;;;;;;;;;;4854957;29;20029;-75
2022/02/28 06:40:52;;;;;;;29.75;11.80;;;;;;;;;;4863500;29;20089;-75
2022/02/28 06:43:24;;;;;;;25.58;10.75;;;;;;;;;;4861572;29;20101;-75
2022/02/28 06:45:50;;;;;;;31.70;12.20;;;;;;;;;;4849304;29;20622;-75
2022/02/28 06:48:16;;;;;;;28.42;11.75;;;;;;;;;;4850369;29;20108;-75
2022/02/28 06:50:44;;;;;;;27.83;11.50;;;;;;;;;;4847489;29;20121;-76
2022/02/28 06:53:10;;;;;;;22.77;9.77;;;;;;;;;;4853998;29;20488;-75
2022/02/28 06:55:40;;;;;;;29.30;10.43;;;;;;;;;;4858209;29;20064;-75
2022/02/28 06:58:06;;;;;;;24.17;11.30;;;;;;;;;;4844742;29;20098;-75
2022/02/28 07:00:32;;;;;;;22.38;10.60;;;;;;;;;;4844492;29;20045;-75
2022/02/28 07:02:58;;;;;;;27.67;11.60;;;;;;;;;;4858365;29;20044;-75
2022/02/28 07:05:24;;;;;;;34.80;17.42;;;;;;;;;;4858973;29;20042;-75
2022/02/28 07:07:50;;;;;;;36.97;16.63;;;;;;;;;;4855942;29;20033;-75
2022/02/28 07:10:16;;;;;;;36.80;15.25;;;;;;;;;;4865836;29;20033;-75
2022/02/28 07:12:42;;;;;;;35.20;14.43;;;;;;;;;;4858756;29;20045;-75
2022/02/28 07:15:09;;;;;;;30.10;12.52;;;;;;;;;;4852211;29;20038;-75
2022/02/28 07:17:35;;;;;;;30.92;11.98;;;;;;;;;;4864044;29;20041;-75
2022/02/28 07:20:01;;;;;;;23.55;11.27;;;;;;;;;;4861266;29;20476;-74
2022/02/28 07:22:27;;;;;;;25.27;10.13;;;;;;;;;;4858646;29;20453;-75
2022/02/28 07:24:53;;;;;;;31.38;11.98;;;;;;;;;;4857676;29;20037;-75
2022/02/28 07:27:20;;;;;;;29.40;11.43;;;;;;;;;;4858902;29;20033;-75
2022/02/28 07:29:46;;;;;;;20.58;10.40;;;;;;;;;;4858187;29;20038;-75
2022/02/28 07:32:12;;;;;;;30.80;11.13;;;;;;;;;;4865494;29;20040;-75
2022/02/28 07:34:38;;;;;;;18.80;8.27;;;;;;;;;;4864448;29;20041;-75
2022/02/28 07:37:04;;;;;;;26.00;10.18;;;;;;;;;;4870482;29;20810;-75
2022/02/28 07:39:31;;;;;;;26.73;10.68;;;;;;;;;;4862536;29;20048;-75
2022/02/28 07:42:00;;;;;;;40.08;13.27;;;;;;;;;;4858763;29;20076;-76
2022/02/28 07:44:26;;;;;;;29.50;10.85;;;;;;;;;;4856368;29;20078;-75
2022/02/28 07:46:52;;;;;;;37.47;14.07;;;;;;;;;;4851478;29;20120;-75
2022/02/28 07:49:18;;;;;;;24.48;12.23;;;;;;;;;;4854676;29;20042;-76
2022/02/28 07:51:44;;;;;;;25.88;13.52;;;;;;;;;;4858608;29;20040;-75
2022/02/28 07:54:10;;;;;;;26.88;11.40;;;;;;;;;;4866244;29;20104;-75
2022/02/28 07:56:36;;;;;;;24.13;10.75;;;;;;;;;;4856651;29;20482;-75
2022/02/28 07:59:02;;;;;;;26.58;9.52;;;;;;;;;;4862781;29;20057;-75
2022/02/28 08:01:28;;;;;;;22.30;9.45;;;;;;;;;;4861641;29;20065;-74
2022/02/28 08:03:54;;;;;;;21.92;9.55;;;;;;;;;;4858180;29;20100;-75
2022/02/28 08:06:20;;;;;;;29.55;12.07;;;;;;;;;;4866611;29;20037;-75
2022/02/28 08:08:46;;;;;;;23.63;9.82;;;;;;;;;;4876682;29;20037;-75
2022/02/28 08:11:12;;;;;;;34.60;19.27;;;;;;;;;;4848879;29;20038;-75
2022/02/28 08:13:38;;;;;;;20.88;10.35;;;;;;;;;;4857848;29;20041;-75
2022/02/28 08:16:04;;;;;;;19.60;7.75;;;;;;;;;;4856782;29;20037;-75
2022/02/28 08:18:30;;;;;;;23.33;9.07;;;;;;;;;;4861455;29;20510;-75
2022/02/28 08:20:56;;;;;;;18.05;7.63;;;;;;;;;;4856329;29;20057;-75
2022/02/28 08:23:23;;;;;;;16.17;7.88;;;;;;;;;;4858720;29;20067;-75
2022/02/28 08:25:49;;;;;;;21.23;8.68;;;;;;;;;;4859363;29;20029;-75
2022/02/28 08:28:15;;;;;;;18.77;8.77;;;;;;;;;;4857672;29;20045;-75
2022/02/28 08:30:41;;;;;;;20.48;8.48;;;;;;;;;;4860698;29;20078;-75
2022/02/28 08:33:07;;;;;;;20.25;8.90;;;;;;;;;;4851991;29;20072;-75
2022/02/28 08:35:34;;;;;;;19.48;9.38;;;;;;;;;;4854396;29;20453;-75
2022/02/28 08:38:00;;;;;;;19.02;8.27;;;;;;;;;;4854875;29;20045;-75
2022/02/28 08:40:26;;;;;;;16.17;8.25;;;;;;;;;;4850022;29;20038;-75
2022/02/28 08:42:52;;;;;;;18.75;7.78;;;;;;;;;;4856605;29;20082;-75
2022/02/28 08:45:18;;;;;;;13.95;6.25;;;;;;;;;;4856563;29;20034;-75
2022/02/28 08:47:44;;;;;;;28.33;10.95;;;;;;;;;;4851838;29;20116;-75
2022/02/28 08:50:11;;;;;;;40.72;20.20;;;;;;;;;;4856716;29;20072;-75
2022/02/28 08:52:37;;;;;;;31.13;13.75;;;;;;;;;;4857012;29;20052;-75
2022/02/28 08:55:04;;;;;;;18.10;8.63;;;;;;;;;;4858021;29;20037;-75
2022/02/28 08:57:30;;;;;;;13.63;5.88;;;;;;;;;;4857973;29;20453;-75
2022/02/28 08:59:56;;;;;;;18.83;7.00;;;;;;;;;;4857023;29;20048;-75
2022/02/28 09:02:22;;;;;;;33.30;13.85;;;;;;;;;;4855683;29;20714;-75
2022/02/28 09:04:48;;;;;;;29.13;14.70;;;;;;;;;;4853074;29;20607;-75
2022/02/28 09:07:14;;;;;;;14.18;4.95;;;;;;;;;;4855853;29;20046;-75
2022/02/28 09:09:40;;;;;;;19.08;8.80;;;;;;;;;;4863346;29;20033;-75
2022/02/28 09:12:07;;;;;;;26.08;9.40;;;;;;;;;;4845325;29;20045;-75
2022/02/28 09:14:33;;;;;;;22.58;9.38;;;;;;;;;;4854830;29;20761;-75
2022/02/28 09:16:59;;;;;;;19.92;7.78;;;;;;;;;;4854107;29;20069;-76
2022/02/28 09:19:25;;;;;;;22.33;8.02;;;;;;;;;;4856349;29;20052;-75
2022/02/28 09:21:53;;;;;;;21.70;10.07;;;;;;;;;;4856032;29;20567;-75
2022/02/28 09:24:20;;;;;;;12.98;6.43;;;;;;;;;;4856265;29;20040;-75
2022/02/28 09:26:46;;;;;;;18.15;7.05;;;;;;;;;;4864056;29;20468;-75
2022/02/28 09:29:12;;;;;;;21.85;8.43;;;;;;;;;;4856340;29;20441;-75
2022/02/28 09:31:38;;;;;;;35.70;15.40;;;;;;;;;;4858722;29;20037;-75
2022/02/28 09:34:04;;;;;;;27.08;10.10;;;;;;;;;;4855913;29;20045;-75
2022/02/28 09:36:30;;;;;;;20.65;8.70;;;;;;;;;;4859448;29;20041;-75
2022/02/28 09:38:58;;;;;;;17.33;6.47;;;;;;;;;;4861151;29;20098;-75
2022/02/28 09:41:24;;;;;;;15.32;6.97;;;;;;;;;;4860943;29;20038;-75
2022/02/28 09:43:50;;;;;;;17.45;5.32;;;;;;;;;;4853931;29;20093;-75
2022/02/28 09:46:16;;;;;;;13.63;4.60;;;;;;;;;;4863351;29;20033;-75
2022/02/28 09:48:43;;;;;;;22.15;5.10;;;;;;;;;;4859242;29;20060;-75
2022/02/28 09:51:09;;;;;;;12.57;4.55;;;;;;;;;;4863064;29;20044;-75
2022/02/28 09:53:35;;;;;;;16.88;4.28;;;;;;;;;;4870307;29;20033;-75
2022/02/28 09:56:02;;;;;;;15.95;4.97;;;;;;;;;;4846294;29;20061;-75
2022/02/28 09:58:29;;;;;;;19.88;5.63;;;;;;;;;;4845577;29;20042;-75
2022/02/28 10:00:56;;;;;;;11.40;4.30;;;;;;;;;;4860023;29;20144;-75
2022/02/28 10:03:23;;;;;;;18.50;3.90;;;;;;;;;;4858920;29;20034;-75
2022/02/28 10:05:49;;;;;;;11.07;4.20;;;;;;;;;;4852709;29;20418;-75
2022/02/28 10:08:16;;;;;;;11.85;4.57;;;;;;;;;;4854725;29;20044;-75
2022/02/28 10:10:47;;;;;;;9.93;4.95;;;;;;;;;;4859061;29;20041;-75
2022/02/28 10:13:13;;;;;;;10.73;4.60;;;;;;;;;;4854569;29;20061;-75
2022/02/28 10:15:39;;;;;;;13.57;4.65;;;;;;;;;;4858755;29;20049;-75
2022/02/28 10:18:07;;;;;;;13.82;5.10;;;;;;;;;;4863802;29;20041;-75
2022/02/28 10:20:37;;;;;;;21.52;5.38;;;;;;;;;;4870862;29;20045;-75
2022/02/28 10:23:08;;;;;;;14.80;4.63;;;;;;;;;;4854428;29;20064;-75
2022/02/28 10:25:35;;;;;;;11.33;4.33;;;;;;;;;;4856368;29;20063;-75
2022/02/28 10:28:11;;;;;;;14.07;4.90;;;;;;;;;;4860112;29;20461;-75
2022/02/28 10:30:37;;;;;;;11.70;4.10;;;;;;;;;;4857257;29;20065;-75
2022/02/28 10:33:07;;;;;;;15.10;4.53;;;;;;;;;;4859405;29;20057;-75
2022/02/28 10:38:22;;;;;;;12.63;4.68;;;;;;;;;;4870502;29;20055;-75
2022/02/28 10:40:49;;;;;;;14.65;4.28;;;;;;;;;;4864690;29;20038;-75
2022/02/28 10:43:29;;;;;;;8.32;3.80;;;;;;;;;;4852653;29;20077;-76
2022/02/28 10:45:56;;;;;;;17.58;4.72;;;;;;;;;;4860111;29;20078;-76
2022/02/28 10:48:23;;;;;;;14.88;3.90;;;;;;;;;;4850787;29;20430;-75
2022/02/28 10:50:50;;;;;;;11.65;3.75;;;;;;;;;;4846084;29;20086;-76
2022/02/28 10:53:20;;;;;;;12.45;3.35;;;;;;;;;;4853000;29;20704;-75
2022/02/28 10:55:47;;;;;;;9.00;3.47;;;;;;;;;;4849271;29;20480;-76
2022/02/28 10:58:14;;;;;;;15.95;4.20;;;;;;;;;;4859505;29;20503;-75
2022/02/28 11:00:52;;;;;;;19.42;4.15;;;;;;;;;;4855141;29;20084;-76
2022/02/28 11:03:18;;;;;;;11.82;3.55;;;;;;;;;;4858409;29;20061;-75
2022/02/28 11:05:58;;;;;;;17.05;4.28;;;;;;;;;;4858677;29;20109;-75
2022/02/28 11:08:24;;;;;;;12.30;3.65;;;;;;;;;;4844215;29;20831;-75
2022/02/28 11:10:51;;;;;;;8.60;3.80;;;;;;;;;;4860956;29;20029;-75
2022/02/28 11:13:17;;;;;;;11.57;3.53;;;;;;;;;;4859090;29;20495;-75
2022/02/28 11:15:43;;;;;;;13.40;3.88;;;;;;;;;;4858854;29;20077;-76
2022/02/28 11:18:20;;;;;;;11.25;3.85;;;;;;;;;;4855983;29;20041;-76
2022/02/28 11:20:47;;;;;;;11.18;3.55;;;;;;;;;;4866169;29;20029;-76
2022/02/28 11:23:18;;;;;;;8.77;3.03;;;;;;;;;;4859139;29;20057;-75
2022/02/28 11:25:44;;;;;;;7.73;3.13;;;;;;;;;;4841770;29;20033;-75
2022/02/28 11:28:10;;;;;;;12.88;3.38;;;;;;;;;;4855224;29;20293;-75
2022/02/28 11:30:36;;;;;;;8.82;2.95;;;;;;;;;;4846737;29;20037;-75
2022/02/28 11:33:05;;;;;;;7.82;3.45;;;;;;;;;;4855963;29;20037;-75
2022/02/28 11:35:40;;;;;;;11.30;3.25;;;;;;;;;;4851386;29;20042;-75
2022/02/28 11:38:27;;;;;;;7.78;2.40;;;;;;;;;;4850488;29;20033;-75
2022/02/28 11:40:54;;;;;;;8.45;2.88;;;;;;;;;;4827410;29;20539;-76
2022/02/28 11:43:22;;;;;;;7.72;3.03;;;;;;;;;;4838115;29;20034;-74
2022/02/28 11:45:58;;;;;;;11.70;3.53;;;;;;;;;;4857514;29;20055;-75
2022/02/28 11:48:27;;;;;;;10.57;3.42;;;;;;;;;;4853465;29;20029;-75
2022/02/28 11:50:55;;;;;;;8.40;3.45;;;;;;;;;;4855700;29;20066;-75
2022/02/28 11:53:40;;;;;;;10.57;3.05;;;;;;;;;;4855064;29;20099;-75
2022/02/28 11:56:18;;;;;;;11.25;3.33;;;;;;;;;;4853799;29;20045;-75
2022/02/28 11:58:50;;;;;;;7.25;2.85;;;;;;;;;;4855054;29;20052;-75
2022/02/28 12:01:17;;;;;;;9.25;2.97;;;;;;;;;;4857069;29;20053;-73
2022/02/28 12:03:49;;;;;;;8.73;3.28;;;;;;;;;;4854121;29;20033;-75
2022/02/28 12:06:15;;;;;;;;;;;;;;;;;;4857377;29;20048;-74
2022/02/28 12:08:44;;;;;;;7.97;3.13;;;;;;;;;;4854986;29;19916;-74
2022/02/28 12:11:20;;;;;;;10.90;3.45;;;;;;;;;;4834704;29;20480;-75
2022/02/28 12:13:58;;;;;;;7.75;3.08;;;;;;;;;;4857087;29;20039;-74
2022/02/28 12:19:29;;;;;;;9.20;3.47;;;;;;;;;;4844094;29;20097;-74
2022/02/28 12:22:02;;;;;;;6.70;2.95;;;;;;;;;;4857043;29;20064;-74
2022/02/28 12:24:47;;;;;;;10.35;3.65;;;;;;;;;;4856018;29;20841;-74
2022/02/28 12:27:16;;;;;;;12.00;4.50;;;;;;;;;;4865197;29;20043;-74
2022/02/28 12:29:42;;;;;;;11.23;4.18;;;;;;;;;;4850141;29;20064;-74
2022/02/28 12:32:08;;;;;;;11.25;4.13;;;;;;;;;;4836591;29;20041;-74
2022/02/28 12:34:35;;;;;;;11.52;4.32;;;;;;;;;;4849620;29;20037;-74
2022/02/28 12:37:01;;;;;;;10.25;5.30;;;;;;;;;;4849510;29;20047;-75
2022/02/28 12:39:27;;;;;;;9.98;4.82;;;;;;;;;;4850504;29;20072;-74
2022/02/28 12:41:56;;;;;;;9.25;4.38;;;;;;;;;;4852209;29;20065;-75
2022/02/28 12:44:23;;;;;;;16.13;5.05;;;;;;;;;;4849056;29;20104;-75
2022/02/28 12:46:52;;;;;;;9.40;4.72;;;;;;;;;;4848079;29;20065;-75
2022/02/28 12:49:19;;;;;;;13.13;5.68;;;;;;;;;;4861440;29;20044;-75
2022/02/28 12:51:47;;;;;;;12.57;5.97;;;;;;;;;;4852877;29;20033;-75
2022/02/28 12:54:15;;;;;;;10.23;5.28;;;;;;;;;;4857732;29;20129;-74
2022/02/28 12:56:42;;;;;;;14.57;5.30;;;;;;;;;;4853899;29;20041;-74
2022/02/28 12:59:08;;;;;;;14.73;5.85;;;;;;;;;;4853973;29;20045;-74
2022/02/28 13:01:34;;;;;;;11.45;5.85;;;;;;;;;;4853229;29;20042;-75
2022/02/28 13:04:02;;;;;;;11.82;5.40;;;;;;;;;;4857446;29;20157;-75
2022/02/28 13:06:29;;;;;;;14.57;5.20;;;;;;;;;;4852473;29;20037;-74
2022/02/28 13:09:00;;;;;;;12.07;5.47;;;;;;;;;;4856650;29;20041;-74
2022/02/28 13:11:26;;;;;;;12.90;5.43;;;;;;;;;;4837981;29;20796;-74
2022/02/28 13:13:53;;;;;;;10.77;4.00;;;;;;;;;;4855876;29;20037;-75
2022/02/28 13:16:19;;;;;;;10.90;5.22;;;;;;;;;;4857411;29;20041;-75
2022/02/28 13:18:46;;;;;;;12.77;5.22;;;;;;;;;;4856363;29;20694;-75
2022/02/28 13:21:12;;;;;;;11.13;5.75;;;;;;;;;;4856862;29;20048;-75
2022/02/28 13:23:39;;;;;;;13.35;4.72;;;;;;;;;;4853916;29;20048;-74
2022/02/28 13:26:06;;;;;;;10.75;4.68;;;;;;;;;;4860682;29;20033;-74
2022/02/28 13:28:45;;;;;;;14.05;5.55;;;;;;;;;;4857430;29;20052;-74
2022/02/28 13:31:12;;;;;;;8.68;4.80;;;;;;;;;;4854679;29;20046;-74
2022/02/28 13:33:38;;;;;;;12.00;5.00;;;;;;;;;;4851226;29;20041;-74
2022/02/28 13:36:05;;;;;;;13.48;6.00;;;;;;;;;;4852921;29;20044;-74
2022/02/28 13:38:31;;;;;;;11.02;5.70;;;;;;;;;;4852359;29;20387;-74
2022/02/28 13:40:58;;;;;;;20.70;6.50;;;;;;;;;;4853680;29;20179;-74
2022/02/28 13:43:33;;;;;;;13.52;5.50;;;;;;;;;;4854984;29;20104;-74
2022/02/28 13:46:00;;;;;;;14.23;5.82;;;;;;;;;;4849830;29;20070;-74
2022/02/28 13:48:27;;;;;;;12.15;5.30;;;;;;;;;;4855909;29;20511;-74
2022/02/28 13:50:57;;;;;;;12.48;5.85;;;;;;;;;;4856370;29;20052;-74
2022/02/28 13:53:27;;;;;;;10.32;5.60;;;;;;;;;;4856525;29;20034;-74
2022/02/28 13:55:54;;;;;;;12.52;6.00;;;;;;;;;;4854967;29;20033;-74
2022/02/28 13:58:27;;;;;;;13.52;5.90;;;;;;;;;;4851880;29;20084;-74
2022/02/28 14:00:55;;;;;;;11.55;7.00;;;;;;;;;;4861356;29;20408;-75
2022/02/28 14:03:24;;;;;;;10.02;6.25;;;;;;;;;;4862429;29;20040;-74
2022/02/28 14:05:51;;;;;;;11.55;5.43;;;;;;;;;;4850022;29;20112;-74
2022/02/28 14:08:17;;;;;;;12.75;5.70;;;;;;;;;;4856434;29;20040;-74
2022/02/28 14:10:48;;;;;;;11.15;6.20;;;;;;;;;;4856714;29;20033;-74
2022/02/28 14:13:18;;;;;;;11.55;6.07;;;;;;;;;;4856662;29;20077;-74
2022/02/28 14:15:45;;;;;;;14.52;6.10;;;;;;;;;;4847802;29;20037;-74
2022/02/28 14:18:11;;;;;;;12.00;5.55;;;;;;;;;;4866638;29;20096;-74
2022/02/28 14:20:38;;;;;;;11.63;5.65;;;;;;;;;;4861358;29;20115;-74
2022/02/28 14:23:09;;;;;;;13.65;6.10;;;;;;;;;;4850858;29;20044;-74
2022/02/28 14:25:36;;;;;;;13.25;5.47;;;;;;;;;;4863223;29;20161;-74
2022/02/28 14:28:03;;;;;;;15.00;5.60;;;;;;;;;;4854686;29;20500;-74
2022/02/28 14:30:30;;;;;;;13.75;6.05;;;;;;;;;;4851371;29;20044;-74
2022/02/28 14:33:06;;;;;;;12.60;5.38;;;;;;;;;;4846070;29;20490;-74